Latest Weather Observations for Roxby Downs

IDS60801

Issued at 6:35 pm CST Wednesday 23 April 2014 (issued every 30 minutes, with the page automatically refreshed every 10 minutes)

About weather observations | Map of weather stations | Latest weather observations for SA | Other Formats
Station Details ID: 016096 Name: OLYMPIC DAM AERODROME Lat: -30.48 Lon: 136.88 Height: 98.5 m
Data from the previous 72 hours. | See also: Recent months at Roxby Downs
Date/Time
CST
Temp
°C
App
Temp
°C
Dew
Point
Rel
Hum
%
Delta-T
°C
Wind Press
QNH
hPa
Press
MSL
hPa
Rain
since 9 am
mm
Dir
 
Spd
km/h
Gust
km/h
Spd
kts
Gust
kts
23/06:30pm 21.2 17.0 5.5 36 7.8 SW 17 22 9 12 1015.6 - 0.0
23/06:00pm 22.0 17.5 6.3 36 8.0 SSW 19 26 10 14 1015.2 1015.0 0.0
23/05:30pm 22.9 18.2 6.2 34 8.5 SSW 20 28 11 15 1014.7 - 0.0
23/05:00pm 23.8 20.1 6.1 32 9.1 SSW 15 22 8 12 1014.3 - 0.0
23/04:30pm 24.1 19.9 5.9 31 9.3 SSW 17 22 9 12 1014.4 - 0.0
23/04:00pm 24.3 20.0 5.1 29 9.7 SSW 17 28 9 15 1014.6 - 0.0
23/03:30pm 24.6 19.2 4.4 27 10.1 SW 22 28 12 15 1014.6 - 0.0
23/03:00pm 24.6 20.0 5.4 29 9.8 SW 19 28 10 15 1014.8 1014.6 0.0
23/02:30pm 24.6 19.8 5.4 29 9.8 WSW 20 28 11 15 1014.8 - 0.0
23/02:00pm 24.5 19.8 5.3 29 9.8 SW 19 30 10 16 1014.9 - 0.0
23/01:30pm 24.5 19.7 5.8 30 9.6 SSW 20 32 11 17 1015.1 - 0.0
23/01:00pm 23.8 17.9 5.7 31 9.2 SW 26 35 14 19 1015.5 - 0.0
23/12:30pm 24.1 19.3 5.5 30 9.5 SSW 20 30 11 16 1015.9 - 0.0
23/12:00pm 23.9 19.1 5.8 31 9.2 SSW 20 35 11 19 1016.3 1016.2 0.0
23/11:30am 23.5 18.3 5.4 31 9.1 SSW 22 33 12 18 1016.9 - 0.0
23/11:00am 22.5 17.5 4.5 31 8.9 SSW 20 30 11 16 1017.4 - 0.0
23/10:30am 21.7 16.9 5.6 35 8.1 SSW 20 30 11 16 1017.7 - 0.0
23/10:00am 20.6 16.0 6.5 40 7.1 S 20 26 11 14 1017.8 - 0.0
23/09:30am 19.5 16.1 7.6 46 6.1 S 15 20 8 11 1017.9 - 0.0
23/09:00am 17.8 14.1 7.8 52 5.1 SSW 17 20 9 11 1017.9 1017.7 0.0
23/08:30am 16.6 13.3 8.1 57 4.3 S 15 19 8 10 1017.7 - 0.0
23/08:00am 14.9 11.6 7.9 63 3.5 S 15 19 8 10 1017.3 - 0.0
23/07:30am 13.5 11.5 8.8 73 2.4 SSW 9 13 5 7 1017.0 - 0.0
23/07:00am 12.6 10.6 8.7 77 2.0 SSW 9 11 5 6 1016.8 - 0.0
23/06:30am 12.9 10.5 8.8 76 2.1 SSW 11 13 6 7 1016.7 - 0.0
23/06:00am 13.1 11.1 8.8 75 2.2 SSW 9 13 5 7 1016.6 1016.4 0.0
23/05:30am 13.6 11.7 8.9 73 2.4 SSW 9 11 5 6 1016.5 - 0.0
23/05:00am 14.3 12.0 8.9 70 2.8 S 11 15 6 8 1016.2 - 0.0
23/04:30am 14.8 12.2 9.2 69 2.9 S 13 15 7 8 1016.1 - 0.0
23/04:00am 15.2 12.2 9.3 68 3.0 S 15 19 8 10 1016.2 - 0.0
23/03:30am 15.4 12.1 9.5 68 3.1 S 17 24 9 13 1016.2 - 0.0
23/03:00am 15.5 11.8 9.4 67 3.2 S 19 24 10 13 1016.3 1016.2 0.0
23/02:30am 15.8 12.4 9.0 64 3.5 S 17 24 9 13 1016.7 - 0.0
23/02:00am 16.1 12.6 8.8 62 3.8 S 17 28 9 15 1016.8 - 0.0
23/01:30am 16.6 12.7 8.8 60 4.0 S 19 24 10 13 1016.8 - 0.0
23/01:00am 16.8 13.4 9.0 60 4.0 S 17 24 9 13 1016.7 - 0.0
23/12:30am 17.2 13.8 9.1 59 4.2 S 17 22 9 12 1016.9 - 0.0
23/12:00am 17.8 14.0 9.2 57 4.5 S 19 26 10 14 1017.0 1016.8 0.0
 
Date/Time
CST
Temp
°C
App
Temp
°C
Dew
Point
Rel
Hum
%
Delta-T
°C
Wind Press
QNH
hPa
Press
MSL
hPa
Rain
since 9 am
mm
Dir
 
Spd
km/h
Gust
km/h
Spd
kts
Gust
kts
22/11:30pm 18.2 14.5 9.3 56 4.7 S 19 28 10 15 1017.2 - 0.0
22/11:00pm 18.5 15.2 9.6 56 4.7 S 17 20 9 11 1017.1 - 0.0
22/10:30pm 18.9 15.1 9.7 55 4.9 S 20 26 11 14 1017.0 - 0.0
22/10:00pm 19.3 15.5 9.8 54 5.1 SSE 20 32 11 17 1017.0 - 0.0
22/09:30pm 19.8 15.3 8.5 48 5.9 S 22 30 12 16 1017.1 - 0.0
22/09:00pm 20.4 15.3 7.7 44 6.6 S 24 32 13 17 1016.9 1016.7 0.0
22/08:30pm 21.2 15.6 8.8 45 6.6 S 28 37 15 20 1016.3 - 0.0
22/08:00pm 22.0 16.6 10.8 49 6.2 S 30 39 16 21 1016.0 - 0.0
22/07:30pm 22.9 19.9 12.5 52 6.0 S 20 26 11 14 1015.4 - 0.0
22/07:00pm 23.5 21.0 12.2 49 6.5 SSW 17 24 9 13 1014.8 - 0.0
22/06:30pm 24.0 21.3 11.7 46 7.0 SW 17 20 9 11 1014.4 - 0.0
22/06:00pm 24.7 21.8 12.3 46 7.1 SSW 19 24 10 13 1014.2 1014.0 0.0
22/05:30pm 25.7 22.5 11.1 40 8.3 SW 19 24 10 13 1013.8 - 0.0
22/05:00pm 26.6 22.7 10.7 37 9.0 SW 22 28 12 15 1013.7 - 0.0
22/04:30pm 27.8 24.3 10.9 35 9.6 SW 20 26 11 14 1013.6 - 0.0
22/04:00pm 28.6 24.3 9.3 30 10.8 SW 22 30 12 16 1013.5 - 0.0
22/03:30pm 30.0 25.7 5.3 21 13.0 W 17 24 9 13 1013.4 - 0.0
22/03:00pm 30.0 25.2 4.6 20 13.2 WNW 19 26 10 14 1013.4 1013.2 0.0
22/02:30pm 29.9 24.0 3.8 19 13.4 WNW 24 33 13 18 1013.4 - 0.0
22/02:00pm 30.2 24.6 3.3 18 13.7 WNW 22 35 12 19 1013.5 - 0.0
22/01:30pm 30.0 23.6 3.1 18 13.6 NW 26 37 14 20 1013.9 - 0.0
22/01:00pm 29.9 23.8 3.0 18 13.6 NW 24 39 13 21 1014.2 - 0.0
22/12:30pm 29.4 23.4 3.4 19 13.2 NW 24 35 13 19 1014.8 - 0.0
22/12:00pm 29.6 23.6 3.5 19 13.2 NW 24 33 13 18 1015.3 1015.1 0.0
22/11:30am 28.4 22.0 3.3 20 12.6 NW 26 41 14 22 1015.7 - 0.0
22/11:00am 27.2 21.3 3.7 22 11.8 NW 24 30 13 16 1016.0 - 0.0
22/10:30am 26.1 21.3 4.6 25 10.9 NNW 19 24 10 13 1016.3 - 0.0
22/10:00am 24.7 20.3 5.0 28 10.0 WNW 17 22 9 12 1016.8 - 0.0
22/09:30am 23.9 19.9 4.8 29 9.6 WNW 15 20 8 11 1016.8 - 0.0
22/09:00am 23.0 20.4 5.9 33 8.7 W 9 13 5 7 1016.8 1016.6 0.0
22/08:30am 20.9 19.8 5.3 36 7.7 CALM 0 0 0 0 1016.7 - 0.0
22/08:00am 19.0 17.9 5.1 40 6.8 CALM 0 0 0 0 1016.3 - 0.0
22/07:30am 16.7 14.6 5.6 48 5.4 SW 6 7 3 4 1015.9 - 0.0
22/07:00am 15.4 12.3 5.6 52 4.7 WSW 11 19 6 10 1015.9 - 0.0
22/06:30am 14.3 12.2 5.9 57 4.0 N 6 7 3 4 1014.9 - 0.0
22/06:00am 16.5 13.8 5.5 48 5.3 N 9 11 5 6 1014.7 1014.5 0.0
22/05:30am 16.3 13.9 5.3 48 5.3 N 7 9 4 5 1014.5 - 0.0
22/05:00am 17.5 14.7 5.1 44 6.0 N 9 11 5 6 1014.3 - 0.0
22/04:30am 18.5 14.9 5.0 41 6.5 NNE 13 15 7 8 1014.0 - 0.0
22/04:00am 18.2 15.4 5.1 42 6.3 NNE 9 13 5 7 1013.9 - 0.0
22/03:30am 19.2 15.7 5.3 40 6.8 N 13 15 7 8 1013.6 - 0.0
22/03:00am 20.1 16.5 5.0 37 7.4 N 13 17 7 9 1013.6 1013.4 0.0
22/02:30am 21.1 16.9 5.5 36 7.8 N 17 20 9 11 1013.9 - 0.0
22/02:00am 20.9 16.8 6.1 38 7.5 N 17 22 9 12 1013.9 - 0.0
22/01:30am 20.7 17.0 6.3 39 7.3 N 15 20 8 11 1014.2 - 0.0
22/01:00am 20.6 16.9 6.5 40 7.1 N 15 19 8 10 1014.5 - 0.0
22/12:30am 20.6 17.3 6.5 40 7.1 N 13 17 7 9 1014.5 - 0.0
22/12:00am 21.2 18.0 6.7 39 7.4 N 13 15 7 8 1014.6 1014.4 0.0
 
Date/Time
CST
Temp
°C
App
Temp
°C
Dew
Point
Rel
Hum
%
Delta-T
°C
Wind Press
QNH
hPa
Press
MSL
hPa
Rain
since 9 am
mm
Dir
 
Spd
km/h
Gust
km/h
Spd
kts
Gust
kts
21/11:30pm 21.9 18.6 6.6 37 7.8 N 13 19 7 10 1014.8 - 0.0
21/11:00pm 22.2 18.5 6.4 36 8.1 N 15 20 8 11 1014.9 - 0.0
21/10:30pm 21.7 18.5 6.8 38 7.6 N 13 17 7 9 1015.2 - 0.0
21/10:00pm 21.2 18.4 7.1 40 7.3 NNE 11 13 6 7 1015.4 - 0.0
21/09:30pm 21.5 18.6 6.6 38 7.6 NNE 11 13 6 7 1015.3 - 0.0
21/09:00pm 21.7 18.8 6.4 37 7.8 NNE 11 15 6 8 1015.3 1015.1 0.0
21/08:30pm 21.5 18.5 5.8 36 7.9 N 11 13 6 7 1015.2 - 0.0
21/08:00pm 22.5 19.3 5.0 32 8.7 NNE 11 15 6 8 1015.0 - 0.0
21/07:30pm 23.1 19.9 5.1 31 9.0 NNE 11 13 6 7 1014.8 - 0.0
21/07:00pm 24.3 21.4 4.6 28 9.9 NNW 9 11 5 6 1014.6 - 0.0
21/06:30pm 25.4 22.1 4.5 26 10.5 NW 11 13 6 7 1014.5 - 0.0
21/06:00pm 26.7 23.0 4.5 24 11.3 NW 13 17 7 9 1014.2 1014.0 0.0
21/05:30pm 28.0 23.5 4.3 22 12.1 NW 17 24 9 13 1014.1 - 0.0
21/05:00pm 28.5 22.9 3.4 20 12.6 NW 22 32 12 17 1014.0 - 0.0
21/04:30pm 29.2 23.3 3.9 20 12.9 NNW 24 32 13 17 1013.8 - 0.0
21/04:00pm 29.2 23.4 4.6 21 12.7 N 24 35 13 19 1013.9 - 0.0
21/03:30pm 29.5 23.8 4.9 21 12.8 NNW 24 33 13 18 1014.1 - 0.0
21/03:00pm 29.3 24.3 4.7 21 12.7 NNW 20 30 11 16 1014.2 1014.0 0.0
21/02:30pm 29.5 24.7 5.6 22 12.6 NNW 20 30 11 16 1014.3 - 0.0
21/02:09pm 29.5 23.2 5.6 22 12.6 NNW 28 63 15 34 1014.4 - 0.0
21/02:00pm 30.2 25.5 6.1 22 12.8 N 20 33 11 18 1014.3 - 0.0
21/01:30pm 29.1 24.0 5.9 23 12.2 N 22 37 12 20 1014.8 - 0.0
21/01:00pm 29.5 23.9 5.6 22 12.6 NNW 24 37 13 20 1015.2 - 0.0
21/12:30pm 29.0 23.2 6.4 24 12.0 N 26 39 14 21 1015.7 - 0.0
21/12:00pm 29.1 23.4 6.5 24 12.0 NNW 26 37 14 20 1016.3 1016.2 0.0
21/11:30am 28.8 23.0 6.2 24 12.0 NNW 26 35 14 19 1016.8 - 0.0
21/11:00am 27.9 22.6 6.6 26 11.3 NNW 24 32 13 17 1017.2 - 0.0
21/10:30am 27.6 23.4 7.5 28 10.8 N 19 28 10 15 1017.5 - 0.0
21/10:00am 25.1 20.8 7.7 33 9.3 N 20 26 11 14 1017.7 - 0.0
21/09:30am 24.2 20.0 8.2 36 8.5 N 20 30 11 16 1017.8 - 0.0
21/09:00am 22.2 18.7 8.7 42 7.2 NNE 17 22 9 12 1017.9 1017.7 0.0
21/08:30am 20.3 17.7 9.2 49 5.9 NNE 13 19 7 10 1017.9 - 0.0
21/08:00am 19.5 17.2 9.1 51 5.5 NNE 11 17 6 9 1017.8 - 0.0
21/07:30am 18.3 16.1 9.4 56 4.7 NNE 11 15 6 8 1017.5 - 0.0
21/07:00am 17.3 14.6 9.0 58 4.3 NE 13 17 7 9 1017.3 - 0.0
21/06:30am 16.9 14.6 9.1 60 4.1 NE 11 15 6 8 1017.1 - 0.0
21/06:00am 17.0 14.7 8.9 59 4.2 NE 11 17 6 9 1016.8 1016.6 0.0
21/05:30am 16.4 14.5 9.1 62 3.8 ENE 9 11 5 6 1016.7 - 0.0
21/05:00am 16.8 14.6 9.2 61 4.0 NNE 11 13 6 7 1016.5 - 0.0
21/04:30am 16.3 15.4 9.3 63 3.6 NE 4 9 2 5 1016.2 - 0.0
21/04:00am 17.1 14.9 9.3 60 4.1 NE 11 11 6 6 1016.1 - 0.0
21/03:30am 16.9 15.0 9.1 60 4.1 NE 9 11 5 6 1016.1 - 0.0
21/03:00am 16.9 14.6 9.1 60 4.1 NE 11 13 6 7 1016.2 1016.1 0.0
21/02:30am 17.2 14.9 9.1 59 4.2 NE 11 13 6 7 1016.2 - 0.0
21/02:00am 17.4 15.2 9.3 59 4.2 NE 11 13 6 7 1016.2 - 0.0
21/01:30am 17.9 15.7 9.5 58 4.4 NE 11 13 6 7 1016.5 - 0.0
21/01:00am 18.3 16.1 9.4 56 4.7 NNE 11 13 6 7 1016.5 - 0.0
21/12:30am 18.6 16.0 9.4 55 4.9 ENE 13 17 7 9 1016.5 - 0.0
21/12:00am 18.4 15.8 9.2 55 4.8 NE 13 15 7 8 1016.6 1016.4 0.0
 
Date/Time
CST
Temp
°C
App
Temp
°C
Dew
Point
Rel
Hum
%
Delta-T
°C
Wind Press
QNH
hPa
Press
MSL
hPa
Rain
since 9 am
mm
Dir
 
Spd
km/h
Gust
km/h
Spd
kts
Gust
kts
20/11:30pm 18.2 16.0 9.3 56 4.7 NE 11 11 6 6 1016.7 - 0.0
20/11:00pm 18.9 16.6 9.1 53 5.2 NE 11 13 6 7 1016.7 - 0.0
20/10:30pm 19.9 17.6 8.9 49 5.8 NE 11 15 6 8 1016.9 - 0.0
20/10:00pm 19.5 17.6 9.1 51 5.5 NE 9 13 5 7 1016.8 - 0.0
20/09:30pm 20.0 18.1 9.0 49 5.8 NNE 9 11 5 6 1016.9 - 0.0
20/09:00pm 20.6 18.7 9.2 48 6.1 NNE 9 11 5 6 1016.8 1016.6 0.0
20/08:30pm 20.4 18.7 9.9 51 5.7 NNE 9 11 5 6 1016.8 - 0.0
20/08:00pm 21.5 19.6 9.1 45 6.6 N 9 11 5 6 1016.6 - 0.0
20/07:30pm 23.1 21.1 8.8 40 7.7 NE 9 9 5 5 1016.3 - 0.0
20/07:00pm 24.0 21.5 8.4 37 8.4 NE 11 13 6 7 1016.2 - 0.0

Other Formats:

Comma delimited format used in spreadsheet applications
http://www.bom.gov.au/fwo/IDS60801/IDS60801.95658.axf

JavaScript Object Notation format (JSON) in row-major order
http://www.bom.gov.au/fwo/IDS60801/IDS60801.95658.json